Time;durP1;ratioP1;P1;durP2;ratioP2;P2;SDS_P1;SDS_P2;PMS_P1;PMS_P2;Temp;Humidity;BMP_temperature;BMP_pressure;BME280_temperature;BME280_humidity;BME280_pressure;Samples;Min_cycle;Max_cycle;Signal;HPM_P1;HPM_P2
2023/09/21 00:00:27;;;;;;;;;;;;;;;;;;5096369;28;19908;-74
2023/09/21 00:02:55;;;;;;;;;;;;;;;;;;5094950;28;19908;-73
2023/09/21 00:05:24;;;;;;;;;;;;;;;;;;5095542;28;19908;-73
2023/09/21 00:07:50;;;;;;;;;;;;;;;;;;5095756;28;19916;-72
2023/09/21 00:10:17;;;;;;;;;;;;;;;;;;5095801;28;19909;-72
2023/09/21 00:12:43;;;;;;;;;;;;;;;;;;5095726;28;19920;-73
2023/09/21 00:15:09;;;;;;;;;;;;;;;;;;5095372;28;19916;-73
2023/09/21 00:17:35;;;;;;;;;;;;;;;;;;5095652;28;19908;-72
2023/09/21 00:20:01;;;;;;;;;;;;;;;;;;5095736;28;19923;-73
2023/09/21 00:22:28;;;;;;;;;;;;;;;;;;5094324;28;19915;-73
2023/09/21 00:24:54;;;;;;;;;;;;;;;;;;5095675;28;20007;-74
2023/09/21 00:27:19;;;;;;;;;;;;;;;;;;5095371;28;20272;-74
2023/09/21 00:29:49;;;;;;;;;;;;;;;;;;5094130;28;19908;-74
2023/09/21 00:32:15;;;;;;;;;;;;;;;;;;5095303;28;20295;-73
2023/09/21 00:34:41;;;;;;;;;;;;;;;;;;5093711;28;19912;-73
2023/09/21 00:37:07;;;;;;;;;;;;;;;;;;5094011;28;19909;-73
2023/09/21 00:39:34;;;;;;;;;;;;;;;;;;5095343;28;19908;-74
2023/09/21 00:42:00;;;;;;;;;;;;;;;;;;5095270;28;19963;-74
2023/09/21 00:44:26;;;;;;;;;;;;;;;;;;5093761;28;19908;-74
2023/09/21 00:46:52;;;;;;;;;;;;;;;;;;5095003;28;20397;-74
2023/09/21 00:49:18;;;;;;;;;;;;;;;;;;5095135;28;19919;-73
2023/09/21 00:51:45;;;;;;;;;;;;;;;;;;5095058;28;19908;-73
2023/09/21 00:54:11;;;;;;;;;;;;;;;;;;5094535;28;19912;-71
2023/09/21 00:56:38;;;;;;;;;;;;;;;;;;5093522;28;19908;-71
2023/09/21 00:59:05;;;;;;;;;;;;;;;;;;5093409;28;19916;-71
2023/09/21 01:01:31;;;;;;;;;;;;;;;;;;5094646;28;19908;-71
2023/09/21 01:03:58;;;;;;;;;;;;;;;;;;5094445;28;20263;-72
2023/09/21 01:06:24;;;;;;;;;;;;;;;;;;5094613;28;19915;-71
2023/09/21 01:08:50;;;;;;;;;;;;;;;;;;5094631;28;19909;-71
2023/09/21 01:11:16;;;;;;;;;;;;;;;;;;5094939;28;19915;-72
2023/09/21 01:13:42;;;;;;;;;;;;;;;;;;5095699;28;19908;-71
2023/09/21 01:16:11;;;;;;;;;;;;;;;;;;5094077;28;19916;-71
2023/09/21 01:18:40;;;;;;;;;;;;;;;;;;5094609;28;19916;-71
2023/09/21 01:21:06;;;;;;;;;;;;;;;;;;5094365;28;19912;-71
2023/09/21 01:23:32;;;;;;;;;;;;;;;;;;5093969;28;20329;-71
2023/09/21 01:26:00;;;;;;;;;;;;;;;;;;5094316;28;19919;-71
2023/09/21 01:28:29;;;;;;;;;;;;;;;;;;5094271;28;20367;-70
2023/09/21 01:30:56;;;;;;;;;;;;;;;;;;5094308;28;19908;-71
2023/09/21 01:33:23;;;;;;;;;;;;;;;;;;5093797;28;20383;-71
2023/09/21 01:35:49;;;;;;;;;;;;;;;;;;5093980;28;19955;-71
2023/09/21 01:38:15;;;;;;;;;;;;;;;;;;5094173;28;19915;-71
2023/09/21 01:40:40;;;;;;;;;;;;;;;;;;5093919;28;19958;-72
2023/09/21 01:43:08;;;;;;;;;;;;;;;;;;5093835;28;19908;-71
2023/09/21 01:45:34;;;;;;;;;;;;;;;;;;5093696;28;19912;-73
2023/09/21 01:48:00;;;;;;;;;;;;;;;;;;5093777;28;19915;-72
2023/09/21 01:50:26;;;;;;;;;;;;;;;;;;5093740;28;19908;-72
2023/09/21 01:52:52;;;;;;;;;;;;;;;;;;5093650;28;19915;-71
2023/09/21 01:55:18;;;;;;;;;;;;;;;;;;5093499;28;19923;-72
2023/09/21 01:57:45;;;;;;;;;;;;;;;;;;5093547;28;19912;-72
2023/09/21 02:00:35;;;;;;;;;;;;;;;;;;5093584;28;19912;-73
2023/09/21 02:02:57;;;;;;;;;;;;;;;;;;5092926;28;20371;-72
2023/09/21 02:05:24;;;;;;;;;;;;;;;;;;5093376;28;19908;-73
2023/09/21 02:07:49;;;;;;;;;;;;;;;;;;5093094;28;19919;-73
2023/09/21 02:10:15;;;;;;;;;;;;;;;;;;5093521;28;20003;-72
2023/09/21 02:12:41;;;;;;;;;;;;;;;;;;5093262;28;20057;-72
2023/09/21 02:15:12;;;;;;;;;;;;;;;;;;5093086;28;20048;-73
2023/09/21 02:17:39;;;;;;;;;;;;;;;;;;5093280;28;19916;-73
2023/09/21 02:20:13;;;;;;;;;;;;;;;;;;5091911;28;19923;-72
2023/09/21 02:22:39;;;;;;;;;;;;;;;;;;5092979;28;19962;-72
2023/09/21 02:25:10;;;;;;;;;;;;;;;;;;5092522;28;19920;-72
2023/09/21 02:27:36;;;;;;;;;;;;;;;;;;5092865;28;19935;-72
2023/09/21 02:30:02;;;;;;;;;;;;;;;;;;5093000;28;19908;-72
2023/09/21 02:32:28;;;;;;;;;;;;;;;;;;5091639;28;19916;-71
2023/09/21 02:34:54;;;;;;;;;;;;;;;;;;5092507;28;20396;-71
2023/09/21 02:37:20;;;;;;;;;;;;;;;;;;5092782;28;19908;-71
2023/09/21 02:39:46;;;;;;;;;;;;;;;;;;5092732;28;20339;-72
2023/09/21 02:42:12;;;;;;;;;;;;;;;;;;5092753;28;19915;-72
2023/09/21 02:44:39;;;;;;;;;;;;;;;;;;5092475;28;19913;-71
2023/09/21 02:47:05;;;;;;;;;;;;;;;;;;5092625;28;19908;-72
2023/09/21 02:49:31;;;;;;;;;;;;;;;;;;5092815;28;19962;-72
2023/09/21 02:51:57;;;;;;;;;;;;;;;;;;5092606;28;19908;-72
2023/09/21 02:54:23;;;;;;;;;;;;;;;;;;5092285;28;20007;-72
2023/09/21 02:56:50;;;;;;;;;;;;;;;;;;5092535;28;19908;-72
2023/09/21 02:59:15;;;;;;;;;;;;;;;;;;5092406;28;20363;-72
2023/09/21 03:01:41;;;;;;;;;;;;;;;;;;5092459;28;19962;-71
2023/09/21 03:04:08;;;;;;;;;;;;;;;;;;5092220;28;19912;-72
2023/09/21 03:06:35;;;;;;;;;;;;;;;;;;5092309;28;19962;-72
2023/09/21 03:09:01;;;;;;;;;;;;;;;;;;5092529;28;19951;-71
2023/09/21 03:11:27;;;;;;;;;;;;;;;;;;5092308;28;19915;-71
2023/09/21 03:13:53;;;;;;;;;;;;;;;;;;5090654;28;19920;-71
2023/09/21 03:16:19;;;;;;;;;;;;;;;;;;5092187;28;20371;-72
2023/09/21 03:18:47;;;;;;;;;;;;;;;;;;5091486;28;19909;-72
2023/09/21 03:21:15;;;;;;;;;;;;;;;;;;5092313;28;19981;-73
2023/09/21 03:23:41;;;;;;;;;;;;;;;;;;5092023;28;19908;-73
2023/09/21 03:26:08;;;;;;;;;;;;;;;;;;5092380;28;19912;-74
2023/09/21 03:28:34;;;;;;;;;;;;;;;;;;5092514;28;19908;-74
2023/09/21 03:31:00;;;;;;;;;;;;;;;;;;5092451;28;19914;-74
2023/09/21 03:33:26;;;;;;;;;;;;;;;;;;5092057;28;19912;-74
2023/09/21 03:35:52;;;;;;;;;;;;;;;;;;5092102;28;19909;-74
2023/09/21 03:38:21;;;;;;;;;;;;;;;;;;5091905;28;19912;-72
2023/09/21 03:40:50;;;;;;;;;;;;;;;;;;5090839;28;19908;-74
2023/09/21 03:43:16;;;;;;;;;;;;;;;;;;5090484;28;19908;-73
2023/09/21 03:45:42;;;;;;;;;;;;;;;;;;5091773;28;19994;-73
2023/09/21 03:48:11;;;;;;;;;;;;;;;;;;5092166;28;20337;-73
2023/09/21 03:50:37;;;;;;;;;;;;;;;;;;5092147;28;19915;-74
2023/09/21 03:53:08;;;;;;;;;;;;;;;;;;5092145;28;19908;-73
2023/09/21 03:55:34;;;;;;;;;;;;;;;;;;5092000;28;19916;-74
2023/09/21 03:58:00;;;;;;;;;;;;;;;;;;5092039;28;19912;-75
2023/09/21 04:02:52;;;;;;;;;;;;;;;;;;5091860;28;19908;-75
2023/09/21 04:05:20;;;;;;;;;;;;;;;;;;5091690;28;19919;-75
2023/09/21 04:07:46;;;;;;;;;;;;;;;;;;5092038;28;19930;-75
2023/09/21 04:10:12;;;;;;;;;;;;;;;;;;5091779;28;20410;-74
2023/09/21 04:12:39;;;;;;;;;;;;;;;;;;5091882;28;19912;-74
2023/09/21 04:15:05;;;;;;;;;;;;;;;;;;5090223;28;19908;-75
2023/09/21 04:17:31;;;;;;;;;;;;;;;;;;5092047;28;19919;-74
2023/09/21 04:19:57;;;;;;;;;;;;;;;;;;5091905;28;19912;-75
2023/09/21 04:22:22;;;;;;;;;;;;;;;;;;5091707;28;19912;-74
2023/09/21 04:24:48;;;;;;;;;;;;;;;;;;5091062;28;19916;-74
2023/09/21 04:27:14;;;;;;;;;;;;;;;;;;5091798;28;19915;-75
2023/09/21 04:29:40;;;;;;;;;;;;;;;;;;5092804;28;19909;-75
2023/09/21 04:32:07;;;;;;;;;;;;;;;;;;5095422;28;19908;-76
2023/09/21 04:34:33;;;;;;;;;;;;;;;;;;5095102;28;19916;-71
2023/09/21 04:36:59;;;;;;;;;;;;;;;;;;5094911;28;19908;-71
2023/09/21 04:39:25;;;;;;;;;;;;;;;;;;5095046;28;19991;-71
2023/09/21 04:41:51;;;;;;;;;;;;;;;;;;5095027;28;20372;-70
2023/09/21 04:44:17;;;;;;;;;;;;;;;;;;5094451;28;19912;-70
2023/09/21 04:46:43;;;;;;;;;;;;;;;;;;5094807;28;20371;-71
2023/09/21 04:49:09;;;;;;;;;;;;;;;;;;5094903;28;19915;-71
2023/09/21 04:51:35;;;;;;;;;;;;;;;;;;5094892;28;20302;-71
2023/09/21 04:54:01;;;;;;;;;;;;;;;;;;5091296;28;19916;-71
2023/09/21 04:56:27;;;;;;;;;;;;;;;;;;5094621;28;19955;-71
2023/09/21 04:58:55;;;;;;;;;;;;;;;;;;5094703;28;19908;-71
2023/09/21 05:01:24;;;;;;;;;;;;;;;;;;5094795;28;19912;-71
2023/09/21 05:03:49;;;;;;;;;;;;;;;;;;5093084;28;20325;-71
2023/09/21 05:06:18;;;;;;;;;;;;;;;;;;5090470;28;19916;-71
2023/09/21 05:08:44;;;;;;;;;;;;;;;;;;5092788;28;19980;-70
2023/09/21 05:11:10;;;;;;;;;;;;;;;;;;5094222;28;20422;-71
2023/09/21 05:13:36;;;;;;;;;;;;;;;;;;5093779;28;19908;-70
2023/09/21 05:16:03;;;;;;;;;;;;;;;;;;5093973;28;19908;-71
2023/09/21 05:18:30;;;;;;;;;;;;;;;;;;5092325;28;20383;-70
2023/09/21 05:20:56;;;;;;;;;;;;;;;;;;5094143;28;20023;-71
2023/09/21 05:23:22;;;;;;;;;;;;;;;;;;5093692;28;19969;-72
2023/09/21 05:25:48;;;;;;;;;;;;;;;;;;5093421;28;20010;-70
2023/09/21 05:28:16;;;;;;;;;;;;;;;;;;5094067;28;19954;-70
2023/09/21 05:30:42;;;;;;;;;;;;;;;;;;5094065;28;19991;-70
2023/09/21 05:33:08;;;;;;;;;;;;;;;;;;5093752;28;20033;-70
2023/09/21 05:35:34;;;;;;;;;;;;;;;;;;5093491;28;20301;-73
2023/09/21 05:38:00;;;;;;;;;;;;;;;;;;5093931;28;19908;-72
2023/09/21 05:40:26;;;;;;;;;;;;;;;;;;5093530;28;20351;-72
2023/09/21 05:42:52;;;;;;;;;;;;;;;;;;5092751;28;19908;-71
2023/09/21 05:45:18;;;;;;;;;;;;;;;;;;5093435;28;19943;-72
2023/09/21 05:47:44;;;;;;;;;;;;;;;;;;5093375;28;19919;-69
2023/09/21 05:50:09;;;;;;;;;;;;;;;;;;5093412;28;19908;-70
2023/09/21 05:52:35;;;;;;;;;;;;;;;;;;5092934;28;19915;-72
2023/09/21 05:55:02;;;;;;;;;;;;;;;;;;5092957;28;19908;-71
2023/09/21 05:57:28;;;;;;;;;;;;;;;;;;5093339;28;19912;-71
2023/09/21 05:59:54;;;;;;;;;;;;;;;;;;5093173;28;20287;-72
2023/09/21 06:02:20;;;;;;;;;;;;;;;;;;5093287;28;19908;-71
2023/09/21 06:04:46;;;;;;;;;;;;;;;;;;5092508;28;20003;-71
2023/09/21 06:07:12;;;;;;;;;;;;;;;;;;5091838;28;19950;-70
2023/09/21 06:09:38;;;;;;;;;;;;;;;;;;5093350;28;19960;-71
2023/09/21 06:12:07;;;;;;;;;;;;;;;;;;5093185;28;19959;-71
2023/09/21 06:14:33;;;;;;;;;;;;;;;;;;5090844;28;19922;-72
2023/09/21 06:16:58;;;;;;;;;;;;;;;;;;5093287;28;19998;-72
2023/09/21 06:19:24;;;;;;;;;;;;;;;;;;5089638;28;19915;-71
2023/09/21 06:21:56;;;;;;;;;;;;;;;;;;5092991;28;20404;-71
2023/09/21 06:24:24;;;;;;;;;;;;;;;;;;5090605;28;19916;-71
2023/09/21 06:26:51;;;;;;;;;;;;;;;;;;5092288;28;19931;-71
2023/09/21 06:29:19;;;;;;;;;;;;;;;;;;5095290;28;19999;-71
2023/09/21 06:31:48;;;;;;;;;;;;;;;;;;5092249;28;19930;-72
2023/09/21 06:34:18;;;;;;;;;;;;;;;;;;5092005;28;19946;-72
2023/09/21 06:36:44;;;;;;;;;;;;;;;;;;5092566;28;19995;-73
2023/09/21 06:39:11;;;;;;;;;;;;;;;;;;5091127;28;19915;-72
2023/09/21 06:41:37;;;;;;;;;;;;;;;;;;5092360;28;19908;-73
2023/09/21 06:44:03;;;;;;;;;;;;;;;;;;5091849;28;20315;-72
2023/09/21 06:46:29;;;;;;;;;;;;;;;;;;5092507;28;20006;-72
2023/09/21 06:48:55;;;;;;;;;;;;;;;;;;5092292;28;20329;-71
2023/09/21 06:51:21;;;;;;;;;;;;;;;;;;5092617;28;19908;-73
2023/09/21 06:53:48;;;;;;;;;;;;;;;;;;5090342;28;19920;-73
2023/09/21 06:56:14;;;;;;;;;;;;;;;;;;5091840;28;20592;-71
2023/09/21 06:58:40;;;;;;;;;;;;;;;;;;5090759;28;19908;-72
2023/09/21 07:01:06;;;;;;;;;;;;;;;;;;5092093;28;19908;-72
2023/09/21 07:03:32;;;;;;;;;;;;;;;;;;5089585;28;19908;-73
2023/09/21 07:05:58;;;;;;;;;;;;;;;;;;5091484;28;19923;-73
2023/09/21 07:08:26;;;;;;;;;;;;;;;;;;5090519;28;20417;-72
2023/09/21 07:10:52;;;;;;;;;;;;;;;;;;5089545;28;19915;-72
2023/09/21 07:13:20;;;;;;;;;;;;;;;;;;5089405;28;19912;-72
2023/09/21 07:15:47;;;;;;;;;;;;;;;;;;5090482;28;19994;-72
2023/09/21 07:18:13;;;;;;;;;;;;;;;;;;5090399;28;19912;-72
2023/09/21 07:20:39;;;;;;;;;;;;;;;;;;5088341;28;19931;-72
2023/09/21 07:23:05;;;;;;;;;;;;;;;;;;5092040;28;19912;-72
2023/09/21 07:25:32;;;;;;;;;;;;;;;;;;5088888;28;19923;-72
2023/09/21 07:27:58;;;;;;;;;;;;;;;;;;5090090;28;19912;-72
2023/09/21 07:30:24;;;;;;;;;;;;;;;;;;5090201;28;19915;-72
2023/09/21 07:32:51;;;;;;;;;;;;;;;;;;5089852;28;20607;-72
2023/09/21 07:35:19;;;;;;;;;;;;;;;;;;5089742;28;19954;-72
2023/09/21 07:37:46;;;;;;;;;;;;;;;;;;5090368;28;20345;-72
2023/09/21 07:40:12;;;;;;;;;;;;;;;;;;5090315;28;19993;-72
2023/09/21 07:42:41;;;;;;;;;;;;;;;;;;5091880;28;19914;-71
2023/09/21 07:45:07;;;;;;;;;;;;;;;;;;5091326;28;19919;-71
2023/09/21 07:47:33;;;;;;;;;;;;;;;;;;5091981;28;19912;-71
2023/09/21 07:49:59;;;;;;;;;;;;;;;;;;5091799;28;20417;-71
2023/09/21 07:52:26;;;;;;;;;;;;;;;;;;5091807;28;19961;-71
2023/09/21 07:54:53;;;;;;;;;;;;;;;;;;5089901;28;19904;-71
2023/09/21 07:57:18;;;;;;;;;;;;;;;;;;5091598;28;20424;-71
2023/09/21 07:59:44;;;;;;;;;;;;;;;;;;5091599;28;19904;-72
2023/09/21 08:02:10;;;;;;;;;;;;;;;;;;5091540;28;19908;-72
2023/09/21 08:04:36;;;;;;;;;;;;;;;;;;5091808;28;20006;-72
2023/09/21 08:07:05;;;;;;;;;;;;;;;;;;5095636;28;20264;-72
2023/09/21 08:09:31;;;;;;;;;;;;;;;;;;5095734;28;19908;-72
2023/09/21 08:11:57;;;;;;;;;;;;;;;;;;5096251;28;20384;-72
2023/09/21 08:14:23;;;;;;;;;;;;;;;;;;5096585;28;19961;-72
2023/09/21 08:16:49;;;;;;;;;;;;;;;;;;5097192;28;19930;-72
2023/09/21 08:19:15;;;;;;;;;;;;;;;;;;5096647;28;20371;-72
2023/09/21 08:21:41;;;;;;;;;;;;;;;;;;5095319;28;19908;-72
2023/09/21 08:24:09;;;;;;;;;;;;;;;;;;5094931;28;19916;-72
2023/09/21 08:26:35;;;;;;;;;;;;;;;;;;5095355;28;19915;-72
2023/09/21 08:29:01;;;;;;;;;;;;;;;;;;5095228;28;19908;-72
2023/09/21 08:31:27;;;;;;;;;;;;;;;;;;5095099;28;20360;-73
2023/09/21 08:33:53;;;;;;;;;;;;;;;;;;5094853;28;20000;-72
2023/09/21 08:36:19;;;;;;;;;;;;;;;;;;5095047;28;19943;-72
2023/09/21 08:38:45;;;;;;;;;;;;;;;;;;5093833;28;19942;-72
2023/09/21 08:41:12;;;;;;;;;;;;;;;;;;5095069;28;19908;-72
2023/09/21 08:43:37;;;;;;;;;;;;;;;;;;5094632;28;19999;-72
2023/09/21 08:46:04;;;;;;;;;;;;;;;;;;5094974;28;19912;-72
2023/09/21 08:48:31;;;;;;;;;;;;;;;;;;5094898;28;19923;-71
2023/09/21 08:50:57;;;;;;;;;;;;;;;;;;5094865;28;19947;-71
2023/09/21 08:53:23;;;;;;;;;;;;;;;;;;5094650;28;19908;-71
2023/09/21 08:55:49;;;;;;;;;;;;;;;;;;5094760;28;20002;-72
2023/09/21 08:58:15;;;;;;;;;;;;;;;;;;5095005;28;19908;-72
2023/09/21 09:00:41;;;;;;;;;;;;;;;;;;5094526;28;19908;-72
2023/09/21 09:03:07;;;;;;;;;;;;;;;;;;5094476;28;20288;-72
2023/09/21 09:05:33;;;;;;;;;;;;;;;;;;5094434;28;19962;-72
2023/09/21 09:07:59;;;;;;;;;;;;;;;;;;5094702;28;20083;-72
2023/09/21 09:10:25;;;;;;;;;;;;;;;;;;5095228;28;19908;-72
2023/09/21 09:12:51;;;;;;;;;;;;;;;;;;5094291;28;19931;-72
2023/09/21 09:15:17;;;;;;;;;;;;;;;;;;5094172;28;20346;-72
2023/09/21 09:17:44;;;;;;;;;;;;;;;;;;5093248;28;19911;-72
2023/09/21 09:20:10;;;;;;;;;;;;;;;;;;5094340;28;19915;-72
2023/09/21 09:22:36;;;;;;;;;;;;;;;;;;5094216;28;20305;-72
2023/09/21 09:25:02;;;;;;;;;;;;;;;;;;5093380;28;19916;-73
2023/09/21 09:27:28;;;;;;;;;;;;;;;;;;5094065;28;20295;-71
2023/09/21 09:29:54;;;;;;;;;;;;;;;;;;5094071;28;19908;-72
2023/09/21 09:32:20;;;;;;;;;;;;;;;;;;5094108;28;19908;-73
2023/09/21 09:34:47;;;;;;;;;;;;;;;;;;5093739;28;19915;-73
2023/09/21 09:37:14;;;;;;;;;;;;;;;;;;5093862;28;20291;-73
2023/09/21 09:39:40;;;;;;;;;;;;;;;;;;5093873;28;19908;-73
2023/09/21 09:42:06;;;;;;;;;;;;;;;;;;5093780;28;19908;-72
2023/09/21 09:44:32;;;;;;;;;;;;;;;;;;5093403;28;19912;-73
2023/09/21 09:46:58;;;;;;;;;;;;;;;;;;5092429;28;19916;-71
2023/09/21 09:49:26;;;;;;;;;;;;;;;;;;5093743;28;19908;-71
2023/09/21 09:51:52;;;;;;;;;;;;;;;;;;5093518;28;19911;-72
2023/09/21 09:54:18;;;;;;;;;;;;;;;;;;5093146;28;19964;-72
2023/09/21 09:56:44;;;;;;;;;;;;;;;;;;5093499;28;20313;-72
2023/09/21 09:59:11;;;;;;;;;;;;;;;;;;5093440;28;19908;-71
2023/09/21 10:01:37;;;;;;;;;;;;;;;;;;5093232;28;19931;-73
2023/09/21 10:04:03;;;;;;;;;;;;;;;;;;5093102;28;20392;-73
2023/09/21 10:06:29;;;;;;;;;;;;;;;;;;5093328;28;19912;-73
2023/09/21 10:08:56;;;;;;;;;;;;;;;;;;5093479;28;19931;-73
2023/09/21 10:11:22;;;;;;;;;;;;;;;;;;5093676;28;19912;-72
2023/09/21 10:13:48;;;;;;;;;;;;;;;;;;5093042;28;19941;-72
2023/09/21 10:16:13;;;;;;;;;;;;;;;;;;5092085;28;20007;-72
2023/09/21 10:18:41;;;;;;;;;;;;;;;;;;5093431;28;19914;-72
2023/09/21 10:21:08;;;;;;;;;;;;;;;;;;5093320;28;19915;-73
2023/09/21 10:23:34;;;;;;;;;;;;;;;;;;5092591;28;19915;-73
2023/09/21 10:26:00;;;;;;;;;;;;;;;;;;5092949;28;20026;-72
2023/09/21 10:28:27;;;;;;;;;;;;;;;;;;5092754;28;19924;-72
2023/09/21 10:30:53;;;;;;;;;;;;;;;;;;5092985;28;20375;-73
2023/09/21 10:33:19;;;;;;;;;;;;;;;;;;5092569;28;19908;-72
2023/09/21 10:35:45;;;;;;;;;;;;;;;;;;5092712;28;20352;-72
2023/09/21 10:38:11;;;;;;;;;;;;;;;;;;5092693;28;19908;-73
2023/09/21 10:40:37;;;;;;;;;;;;;;;;;;5092592;28;19908;-72
2023/09/21 10:43:04;;;;;;;;;;;;;;;;;;5092562;28;20360;-72
2023/09/21 10:45:30;;;;;;;;;;;;;;;;;;5092291;28;19923;-72
2023/09/21 10:47:56;;;;;;;;;;;;;;;;;;5092710;28;19908;-72
2023/09/21 10:50:22;;;;;;;;;;;;;;;;;;5092549;28;20287;-73
2023/09/21 10:52:48;;;;;;;;;;;;;;;;;;5092330;28;19923;-73
2023/09/21 10:55:15;;;;;;;;;;;;;;;;;;5092052;28;19908;-72
2023/09/21 10:57:42;;;;;;;;;;;;;;;;;;5092317;28;19908;-73
2023/09/21 11:00:08;;;;;;;;;;;;;;;;;;5092328;28;19908;-73
2023/09/21 11:02:34;;;;;;;;;;;;;;;;;;5092450;28;19915;-72
2023/09/21 11:05:00;;;;;;;;;;;;;;;;;;5091935;28;20003;-72
2023/09/21 11:07:26;;;;;;;;;;;;;;;;;;5092175;28;19962;-72
2023/09/21 11:09:52;;;;;;;;;;;;;;;;;;5092260;28;19908;-72
2023/09/21 11:12:18;;;;;;;;;;;;;;;;;;5091898;28;20348;-72
2023/09/21 11:14:44;;;;;;;;;;;;;;;;;;5091823;28;19998;-71
2023/09/21 11:17:11;;;;;;;;;;;;;;;;;;5092216;28;19953;-71
2023/09/21 11:19:37;;;;;;;;;;;;;;;;;;5091987;28;20446;-72
2023/09/21 11:22:05;;;;;;;;;;;;;;;;;;5092252;28;19916;-72
2023/09/21 11:24:31;;;;;;;;;;;;;;;;;;5091693;28;19916;-73
2023/09/21 11:26:58;;;;;;;;;;;;;;;;;;5092029;28;20391;-72
2023/09/21 11:29:24;;;;;;;;;;;;;;;;;;5091817;28;19912;-73
2023/09/21 11:31:51;;;;;;;;;;;;;;;;;;5092048;28;19916;-73
2023/09/21 11:34:20;;;;;;;;;;;;;;;;;;5091648;28;19909;-72
2023/09/21 11:36:46;;;;;;;;;;;;;;;;;;5091916;28;19908;-73
2023/09/21 11:39:12;;;;;;;;;;;;;;;;;;5091445;28;19909;-72
2023/09/21 11:41:39;;;;;;;;;;;;;;;;;;5091427;28;20405;-73
2023/09/21 11:44:05;;;;;;;;;;;;;;;;;;5091650;28;19995;-73
2023/09/21 11:46:31;;;;;;;;;;;;;;;;;;5091809;28;19912;-73
2023/09/21 11:48:57;;;;;;;;;;;;;;;;;;5091729;28;19987;-73
2023/09/21 11:51:28;;;;;;;;;;;;;;;;;;5091732;28;19955;-73
2023/09/21 11:53:58;;;;;;;;;;;;;;;;;;5091556;28;19908;-72
2023/09/21 11:56:23;;;;;;;;;;;;;;;;;;5091712;28;19908;-72
2023/09/21 11:58:49;;;;;;;;;;;;;;;;;;5091581;28;19914;-71
2023/09/21 12:01:19;;;;;;;;;;;;;;;;;;5091770;28;20276;-71
2023/09/21 12:03:46;;;;;;;;;;;;;;;;;;5091420;28;19912;-71
2023/09/21 12:06:12;;;;;;;;;;;;;;;;;;5091495;28;19919;-71
2023/09/21 12:08:38;;;;;;;;;;;;;;;;;;5091446;28;19912;-72
2023/09/21 12:11:04;;;;;;;;;;;;;;;;;;5091439;28;19994;-71
2023/09/21 12:13:31;;;;;;;;;;;;;;;;;;5091244;28;20359;-72
2023/09/21 12:15:58;;;;;;;;;;;;;;;;;;5091554;28;19999;-72
2023/09/21 12:18:26;;;;;;;;;;;;;;;;;;5091913;28;20341;-72
2023/09/21 12:20:56;;;;;;;;;;;;;;;;;;5090210;28;20271;-72
2023/09/21 12:23:22;;;;;;;;;;;;;;;;;;5091211;28;19919;-72
2023/09/21 12:25:48;;;;;;;;;;;;;;;;;;5091746;28;19920;-74
2023/09/21 12:28:14;;;;;;;;;;;;;;;;;;5091441;28;19908;-74
2023/09/21 12:30:42;;;;;;;;;;;;;;;;;;5091250;28;19916;-74
2023/09/21 12:33:08;;;;;;;;;;;;;;;;;;5091216;28;20069;-74
2023/09/21 12:35:35;;;;;;;;;;;;;;;;;;5091066;28;19993;-73
2023/09/21 12:38:01;;;;;;;;;;;;;;;;;;5090904;28;20402;-73
2023/09/21 12:40:27;;;;;;;;;;;;;;;;;;5091309;28;19908;-73
2023/09/21 12:42:53;;;;;;;;;;;;;;;;;;5090991;28;19915;-74
2023/09/21 12:45:21;;;;;;;;;;;;;;;;;;5090667;28;19923;-73
2023/09/21 12:47:47;;;;;;;;;;;;;;;;;;5091443;28;19908;-74
2023/09/21 12:50:13;;;;;;;;;;;;;;;;;;5091289;28;19906;-72
2023/09/21 12:52:45;;;;;;;;;;;;;;;;;;5094595;28;20370;-74
2023/09/21 12:55:11;;;;;;;;;;;;;;;;;;5094364;28;19952;-74
2023/09/21 12:57:37;;;;;;;;;;;;;;;;;;5094489;28;19908;-74
2023/09/21 13:00:04;;;;;;;;;;;;;;;;;;5094285;28;19912;-74
2023/09/21 13:02:30;;;;;;;;;;;;;;;;;;5094449;28;19904;-73
2023/09/21 13:04:57;;;;;;;;;;;;;;;;;;5094194;28;20007;-73
2023/09/21 13:07:24;;;;;;;;;;;;;;;;;;5094373;28;19915;-73
2023/09/21 13:09:50;;;;;;;;;;;;;;;;;;5093843;28;19908;-74
2023/09/21 13:12:16;;;;;;;;;;;;;;;;;;5094572;28;20283;-73
2023/09/21 13:14:42;;;;;;;;;;;;;;;;;;5094056;28;19912;-72
2023/09/21 13:17:08;;;;;;;;;;;;;;;;;;5095191;28;19959;-73
2023/09/21 13:19:34;;;;;;;;;;;;;;;;;;5094166;28;19924;-73
2023/09/21 13:21:59;;;;;;;;;;;;;;;;;;5094117;28;19915;-74
2023/09/21 13:24:25;;;;;;;;;;;;;;;;;;5093724;28;19923;-74
2023/09/21 13:26:51;;;;;;;;;;;;;;;;;;5094016;28;19908;-74
2023/09/21 13:29:18;;;;;;;;;;;;;;;;;;5092747;28;19908;-73
2023/09/21 13:31:44;;;;;;;;;;;;;;;;;;5093982;28;19930;-72
2023/09/21 13:34:10;;;;;;;;;;;;;;;;;;5093681;28;19995;-74
2023/09/21 13:36:36;;;;;;;;;;;;;;;;;;5093803;28;20026;-73
2023/09/21 13:39:02;;;;;;;;;;;;;;;;;;5093755;28;19908;-73
2023/09/21 13:41:28;;;;;;;;;;;;;;;;;;5093331;28;19912;-74
2023/09/21 13:43:54;;;;;;;;;;;;;;;;;;5093589;28;19908;-72
2023/09/21 13:46:20;;;;;;;;;;;;;;;;;;5093685;28;20385;-73
2023/09/21 13:48:46;;;;;;;;;;;;;;;;;;5093844;28;19915;-74
2023/09/21 13:51:12;;;;;;;;;;;;;;;;;;5093735;28;20316;-74
2023/09/21 13:53:38;;;;;;;;;;;;;;;;;;5093441;28;19916;-73
2023/09/21 13:56:04;;;;;;;;;;;;;;;;;;5093473;28;19954;-73
2023/09/21 13:58:30;;;;;;;;;;;;;;;;;;5093815;28;19908;-73
2023/09/21 14:00:56;;;;;;;;;;;;;;;;;;5092208;28;19912;-72
2023/09/21 14:03:22;;;;;;;;;;;;;;;;;;5092873;28;19908;-73
2023/09/21 14:05:49;;;;;;;;;;;;;;;;;;5092721;28;20350;-75
2023/09/21 14:08:22;;;;;;;;;;;;;;;;;;5093008;28;19909;-73
2023/09/21 14:10:47;;;;;;;;;;;;;;;;;;5093536;28;19915;-73
2023/09/21 14:13:15;;;;;;;;;;;;;;;;;;5093817;28;19909;-73
2023/09/21 14:15:41;;;;;;;;;;;;;;;;;;5093066;28;20452;-74
2023/09/21 14:18:07;;;;;;;;;;;;;;;;;;5091666;28;19915;-74
2023/09/21 14:20:33;;;;;;;;;;;;;;;;;;5093156;28;19908;-72
2023/09/21 14:23:01;;;;;;;;;;;;;;;;;;5092290;28;20422;-73
2023/09/21 14:25:27;;;;;;;;;;;;;;;;;;5092904;28;19924;-73
2023/09/21 14:27:53;;;;;;;;;;;;;;;;;;5093505;28;20401;-73
2023/09/21 14:30:19;;;;;;;;;;;;;;;;;;5093029;28;20007;-73
2023/09/21 14:32:46;;;;;;;;;;;;;;;;;;5093229;28;20386;-74
2023/09/21 14:35:12;;;;;;;;;;;;;;;;;;5092578;28;19915;-72
2023/09/21 14:37:38;;;;;;;;;;;;;;;;;;5092464;28;19912;-73
2023/09/21 14:40:05;;;;;;;;;;;;;;;;;;5092896;28;19930;-74
2023/09/21 14:42:31;;;;;;;;;;;;;;;;;;5092514;28;19991;-73
2023/09/21 14:44:57;;;;;;;;;;;;;;;;;;5092350;28;20003;-73
2023/09/21 14:47:26;;;;;;;;;;;;;;;;;;5092697;28;20325;-72
2023/09/21 14:49:53;;;;;;;;;;;;;;;;;;5092531;28;19939;-73
2023/09/21 14:52:19;;;;;;;;;;;;;;;;;;5090390;28;20025;-73
2023/09/21 14:54:45;;;;;;;;;;;;;;;;;;5092003;28;19961;-73
2023/09/21 14:57:11;;;;;;;;;;;;;;;;;;5092570;28;20319;-73
2023/09/21 14:59:39;;;;;;;;;;;;;;;;;;5092433;28;20268;-73
2023/09/21 15:02:05;;;;;;;;;;;;;;;;;;5092076;28;19919;-73
2023/09/21 15:04:31;;;;;;;;;;;;;;;;;;5092284;28;20329;-73
2023/09/21 15:06:57;;;;;;;;;;;;;;;;;;5092289;28;19912;-73
2023/09/21 15:09:23;;;;;;;;;;;;;;;;;;5092504;28;19912;-73
2023/09/21 15:11:49;;;;;;;;;;;;;;;;;;5092607;28;19946;-72
2023/09/21 15:14:15;;;;;;;;;;;;;;;;;;5090882;28;19908;-73
2023/09/21 15:16:41;;;;;;;;;;;;;;;;;;5091733;28;19944;-72
2023/09/21 15:19:07;;;;;;;;;;;;;;;;;;5091761;28;19908;-73
2023/09/21 15:21:33;;;;;;;;;;;;;;;;;;5091797;28;19962;-72
2023/09/21 15:23:59;;;;;;;;;;;;;;;;;;5091350;28;19985;-73
2023/09/21 15:26:25;;;;;;;;;;;;;;;;;;5091172;28;20014;-73
2023/09/21 15:28:51;;;;;;;;;;;;;;;;;;5091564;28;19962;-73
2023/09/21 15:31:17;;;;;;;;;;;;;;;;;;5091103;28;19912;-73
2023/09/21 15:33:43;;;;;;;;;;;;;;;;;;5091027;28;20410;-73
2023/09/21 15:36:09;;;;;;;;;;;;;;;;;;5090234;28;19908;-72
2023/09/21 15:38:35;;;;;;;;;;;;;;;;;;5090191;28;19908;-74
2023/09/21 15:41:01;;;;;;;;;;;;;;;;;;5090510;28;19908;-72
2023/09/21 15:43:27;;;;;;;;;;;;;;;;;;5089675;28;20381;-72
2023/09/21 15:45:53;;;;;;;;;;;;;;;;;;5088612;28;19912;-72
2023/09/21 15:48:19;;;;;;;;;;;;;;;;;;5091647;28;20393;-73
2023/09/21 15:50:44;;;;;;;;;;;;;;;;;;5091582;28;20298;-73
2023/09/21 15:53:10;;;;;;;;;;;;;;;;;;5091299;28;19908;-72
2023/09/21 15:55:36;;;;;;;;;;;;;;;;;;5091035;28;19913;-73
2023/09/21 15:58:02;;;;;;;;;;;;;;;;;;5091096;28;19914;-73
2023/09/21 16:00:30;;;;;;;;;;;;;;;;;;5091656;28;19999;-73
2023/09/21 16:02:55;;;;;;;;;;;;;;;;;;5091390;28;19904;-73
2023/09/21 16:05:21;;;;;;;;;;;;;;;;;;5091300;28;20007;-72
2023/09/21 16:07:47;;;;;;;;;;;;;;;;;;5091064;28;19908;-72
2023/09/21 16:10:13;;;;;;;;;;;;;;;;;;5090934;28;19916;-74
2023/09/21 16:12:39;;;;;;;;;;;;;;;;;;5091282;28;19909;-74
2023/09/21 16:15:06;;;;;;;;;;;;;;;;;;5091216;28;19969;-72
2023/09/21 16:17:32;;;;;;;;;;;;;;;;;;5091363;28;19915;-73
2023/09/21 16:19:58;;;;;;;;;;;;;;;;;;5091407;28;19931;-72
2023/09/21 16:22:24;;;;;;;;;;;;;;;;;;5091419;28;20287;-73
2023/09/21 16:24:50;;;;;;;;;;;;;;;;;;5090552;28;20054;-73
2023/09/21 16:27:15;;;;;;;;;;;;;;;;;;5092963;28;19919;-72
2023/09/21 16:29:41;;;;;;;;;;;;;;;;;;5095647;28;20007;-74
2023/09/21 16:32:10;;;;;;;;;;;;;;;;;;5095299;28;19908;-73
2023/09/21 16:34:36;;;;;;;;;;;;;;;;;;5094906;28;19985;-73
2023/09/21 16:37:03;;;;;;;;;;;;;;;;;;5095343;28;19908;-72
2023/09/21 16:39:29;;;;;;;;;;;;;;;;;;5077626;28;20437;-73
2023/09/21 16:41:55;;;;;;;;;;;;;;;;;;5094638;28;19953;-73